sensor_id;sensor_type;location;lat;lon;timestamp;pressure;altitude;pressure_sealevel;temperature;humidity
77161;BME280;66135;0.000;0.000;2023-11-21T00:01:24;100954.75;;;18.77;67.82
77161;BME280;66135;0.000;0.000;2023-11-21T00:03:50;100952.19;;;18.76;67.81
77161;BME280;66135;0.000;0.000;2023-11-21T00:06:15;100948.81;;;18.74;67.65
77161;BME280;66135;0.000;0.000;2023-11-21T00:08:41;100957.97;;;18.73;67.87
77161;BME280;66135;0.000;0.000;2023-11-21T00:11:06;100950.00;;;18.71;67.76
77161;BME280;66135;0.000;0.000;2023-11-21T00:13:32;100950.69;;;18.73;67.58
77161;BME280;66135;0.000;0.000;2023-11-21T00:15:58;100950.00;;;18.71;67.87
77161;BME280;66135;0.000;0.000;2023-11-21T00:18:23;100957.47;;;18.69;67.78
77161;BME280;66135;0.000;0.000;2023-11-21T00:20:48;100959.19;;;18.70;67.85
77161;BME280;66135;0.000;0.000;2023-11-21T00:23:14;100954.94;;;18.68;67.73
77161;BME280;66135;0.000;0.000;2023-11-21T00:25:39;100952.41;;;18.66;67.86
77161;BME280;66135;0.000;0.000;2023-11-21T00:28:05;100960.91;;;18.63;67.79
77161;BME280;66135;0.000;0.000;2023-11-21T00:30:31;100955.47;;;18.63;67.73
77161;BME280;66135;0.000;0.000;2023-11-21T00:32:56;100961.91;;;18.62;67.85
77161;BME280;66135;0.000;0.000;2023-11-21T00:35:22;100958.19;;;18.63;67.79
77161;BME280;66135;0.000;0.000;2023-11-21T00:37:47;100958.19;;;18.63;67.81
77161;BME280;66135;0.000;0.000;2023-11-21T00:40:15;100960.25;;;18.61;67.52
77161;BME280;66135;0.000;0.000;2023-11-21T00:42:40;100961.09;;;18.62;67.61
77161;BME280;66135;0.000;0.000;2023-11-21T00:45:06;100971.09;;;18.61;67.52
77161;BME280;66135;0.000;0.000;2023-11-21T00:47:32;100965.84;;;18.60;67.63
77161;BME280;66135;0.000;0.000;2023-11-21T00:49:57;100966.84;;;18.59;67.45
77161;BME280;66135;0.000;0.000;2023-11-21T00:52:22;100971.44;;;18.58;67.68
77161;BME280;66135;0.000;0.000;2023-11-21T00:54:48;100972.44;;;18.57;67.36
77161;BME280;66135;0.000;0.000;2023-11-21T00:57:14;100970.09;;;18.54;67.68
77161;BME280;66135;0.000;0.000;2023-11-21T00:59:39;100977.56;;;18.52;67.69
77161;BME280;66135;0.000;0.000;2023-11-21T01:02:05;100986.38;;;18.54;67.65
77161;BME280;66135;0.000;0.000;2023-11-21T01:04:30;100980.09;;;18.54;67.51
77161;BME280;66135;0.000;0.000;2023-11-21T01:06:57;100980.78;;;18.56;67.60
77161;BME280;66135;0.000;0.000;2023-11-21T01:09:22;100989.09;;;18.54;67.61
77161;BME280;66135;0.000;0.000;2023-11-21T01:11:47;100980.94;;;18.54;67.55
77161;BME280;66135;0.000;0.000;2023-11-21T01:14:13;100989.59;;;18.50;67.31
77161;BME280;66135;0.000;0.000;2023-11-21T01:16:38;100987.06;;;18.48;67.34
77161;BME280;66135;0.000;0.000;2023-11-21T01:19:04;100993.34;;;18.49;67.38
77161;BME280;66135;0.000;0.000;2023-11-21T01:21:29;101010.28;;;18.51;67.46
77161;BME280;66135;0.000;0.000;2023-11-21T01:23:56;100997.91;;;18.48;67.19
77161;BME280;66135;0.000;0.000;2023-11-21T01:26:21;101005.88;;;18.50;67.35
77161;BME280;66135;0.000;0.000;2023-11-21T01:28:46;101003.34;;;18.48;67.46
77161;BME280;66135;0.000;0.000;2023-11-21T01:31:14;101006.22;;;18.47;67.04
77161;BME280;66135;0.000;0.000;2023-11-21T01:33:39;101009.63;;;18.49;67.38
77161;BME280;66135;0.000;0.000;2023-11-21T01:36:05;101017.94;;;18.47;67.11
77161;BME280;66135;0.000;0.000;2023-11-21T01:38:31;101017.25;;;18.45;67.31
77161;BME280;66135;0.000;0.000;2023-11-21T01:40:57;101022.69;;;18.45;67.26
77161;BME280;66135;0.000;0.000;2023-11-21T01:43:22;101029.97;;;18.45;67.23
77161;BME280;66135;0.000;0.000;2023-11-21T01:45:48;101025.56;;;18.44;67.06
77161;BME280;66135;0.000;0.000;2023-11-21T01:48:13;101032.84;;;18.43;67.17
77161;BME280;66135;0.000;0.000;2023-11-21T01:50:39;101030.13;;;18.43;67.08
77161;BME280;66135;0.000;0.000;2023-11-21T01:53:05;101037.59;;;18.41;67.33
77161;BME280;66135;0.000;0.000;2023-11-21T01:55:32;101030.63;;;18.39;67.42
77161;BME280;66135;0.000;0.000;2023-11-21T01:57:59;101023.34;;;18.39;67.02
77161;BME280;66135;0.000;0.000;2023-11-21T02:00:24;101026.19;;;18.38;67.21
77161;BME280;66135;0.000;0.000;2023-11-21T02:02:51;101022.66;;;18.37;67.29
77161;BME280;66135;0.000;0.000;2023-11-21T02:05:16;101017.06;;;18.39;67.16
77161;BME280;66135;0.000;0.000;2023-11-21T02:07:46;101019.09;;;18.37;67.19
77161;BME280;66135;0.000;0.000;2023-11-21T02:10:15;101023.66;;;18.36;67.15
77161;BME280;66135;0.000;0.000;2023-11-21T02:12:41;101031.13;;;18.34;67.08
77161;BME280;66135;0.000;0.000;2023-11-21T02:15:09;101037.59;;;18.33;67.12
77161;BME280;66135;0.000;0.000;2023-11-21T02:17:42;101036.53;;;18.34;67.41
77161;BME280;66135;0.000;0.000;2023-11-21T02:20:12;101035.91;;;18.32;67.22
77161;BME280;66135;0.000;0.000;2023-11-21T02:22:41;101042.31;;;18.31;67.37
77161;BME280;66135;0.000;0.000;2023-11-21T02:25:07;101040.66;;;18.30;67.31
77161;BME280;66135;0.000;0.000;2023-11-21T02:27:33;101050.63;;;18.30;67.45
77161;BME280;66135;0.000;0.000;2023-11-21T02:29:58;101047.94;;;18.30;67.33
77161;BME280;66135;0.000;0.000;2023-11-21T02:32:25;101048.97;;;18.29;67.08
77161;BME280;66135;0.000;0.000;2023-11-21T02:34:51;101058.94;;;18.28;67.43
77161;BME280;66135;0.000;0.000;2023-11-21T02:37:16;101057.22;;;18.27;67.37
77161;BME280;66135;0.000;0.000;2023-11-21T02:39:42;101054.53;;;18.27;67.36
77161;BME280;66135;0.000;0.000;2023-11-21T02:42:07;101064.72;;;18.25;67.38
77161;BME280;66135;0.000;0.000;2023-11-21T02:44:33;101059.28;;;18.25;67.13
77161;BME280;66135;0.000;0.000;2023-11-21T02:46:58;101066.56;;;18.25;67.29
77161;BME280;66135;0.000;0.000;2023-11-21T02:49:23;101069.47;;;18.23;67.39
77161;BME280;66135;0.000;0.000;2023-11-21T02:51:49;101066.75;;;18.23;67.34
77161;BME280;66135;0.000;0.000;2023-11-21T02:54:14;101070.28;;;18.24;67.23
77161;BME280;66135;0.000;0.000;2023-11-21T02:56:42;101070.47;;;18.22;67.25
77161;BME280;66135;0.000;0.000;2023-11-21T02:59:07;101063.19;;;18.23;67.34
77161;BME280;66135;0.000;0.000;2023-11-21T03:01:32;101066.06;;;18.21;67.40
77161;BME280;66135;0.000;0.000;2023-11-21T03:03:58;101065.22;;;18.21;67.37
77161;BME280;66135;0.000;0.000;2023-11-21T03:06:23;101064.69;;;18.17;67.34
77161;BME280;66135;0.000;0.000;2023-11-21T03:08:48;101060.13;;;18.18;67.38
77161;BME280;66135;0.000;0.000;2023-11-21T03:11:14;101058.28;;;18.18;67.40
77161;BME280;66135;0.000;0.000;2023-11-21T03:13:40;101056.75;;;18.16;67.53
77161;BME280;66135;0.000;0.000;2023-11-21T03:16:26;101069.28;;;18.17;67.26
77161;BME280;66135;0.000;0.000;2023-11-21T03:18:51;101074.88;;;18.15;67.47
77161;BME280;66135;0.000;0.000;2023-11-21T03:21:17;101069.44;;;18.15;67.24
77161;BME280;66135;0.000;0.000;2023-11-21T03:23:43;101074.22;;;18.13;67.30
77161;BME280;66135;0.000;0.000;2023-11-21T03:26:11;101078.44;;;18.16;67.33
77161;BME280;66135;0.000;0.000;2023-11-21T03:28:54;101082.34;;;18.13;66.99
77161;BME280;66135;0.000;0.000;2023-11-21T03:31:20;101080.47;;;18.14;67.32
77161;BME280;66135;0.000;0.000;2023-11-21T03:33:46;101083.34;;;18.12;67.23
77161;BME280;66135;0.000;0.000;2023-11-21T03:36:12;101087.91;;;18.12;67.35
77161;BME280;66135;0.000;0.000;2023-11-21T03:38:37;101087.09;;;18.11;67.42
77161;BME280;66135;0.000;0.000;2023-11-21T03:41:03;101081.66;;;18.11;67.21
77161;BME280;66135;0.000;0.000;2023-11-21T03:43:29;101081.84;;;18.10;67.12
77161;BME280;66135;0.000;0.000;2023-11-21T03:45:55;101084.56;;;18.10;67.18
77161;BME280;66135;0.000;0.000;2023-11-21T03:48:20;101083.69;;;18.09;67.26
77161;BME280;66135;0.000;0.000;2023-11-21T03:50:45;101080.97;;;18.09;67.26
77161;BME280;66135;0.000;0.000;2023-11-21T03:53:12;101090.28;;;18.07;67.42
77161;BME280;66135;0.000;0.000;2023-11-21T03:55:37;101096.75;;;18.06;67.38
77161;BME280;66135;0.000;0.000;2023-11-21T03:58:03;101084.03;;;18.06;67.38
77161;BME280;66135;0.000;0.000;2023-11-21T04:00:28;101087.56;;;18.07;67.31
77161;BME280;66135;0.000;0.000;2023-11-21T04:02:53;101088.78;;;18.04;67.35
77161;BME280;66135;0.000;0.000;2023-11-21T04:05:20;101090.81;;;18.02;67.43
77161;BME280;66135;0.000;0.000;2023-11-21T04:07:47;101098.94;;;18.02;67.36
77161;BME280;66135;0.000;0.000;2023-11-21T04:10:12;101097.22;;;18.01;67.39
77161;BME280;66135;0.000;0.000;2023-11-21T04:12:38;101108.91;;;18.02;67.34
77161;BME280;66135;0.000;0.000;2023-11-21T04:15:04;101118.91;;;18.01;67.21
77161;BME280;66135;0.000;0.000;2023-11-21T04:17:29;101113.66;;;17.99;67.42
77161;BME280;66135;0.000;0.000;2023-11-21T04:19:55;101111.97;;;17.98;67.50
77161;BME280;66135;0.000;0.000;2023-11-21T04:22:21;101114.69;;;17.98;67.41
77161;BME280;66135;0.000;0.000;2023-11-21T04:24:47;101123.00;;;17.97;67.44
77161;BME280;66135;0.000;0.000;2023-11-21T04:27:12;101132.81;;;17.98;67.16
77161;BME280;66135;0.000;0.000;2023-11-21T04:29:38;101130.25;;;17.96;67.44
77161;BME280;66135;0.000;0.000;2023-11-21T04:32:04;101143.13;;;17.94;67.39
77161;BME280;66135;0.000;0.000;2023-11-21T04:34:29;101140.25;;;17.96;67.41
77161;BME280;66135;0.000;0.000;2023-11-21T04:36:56;101138.56;;;17.95;67.38
77161;BME280;66135;0.000;0.000;2023-11-21T04:39:22;101142.13;;;17.95;67.37
77161;BME280;66135;0.000;0.000;2023-11-21T04:41:47;101142.28;;;17.94;67.44
77161;BME280;66135;0.000;0.000;2023-11-21T04:44:12;101155.00;;;17.93;67.24
77161;BME280;66135;0.000;0.000;2023-11-21T04:46:38;101156.00;;;17.92;67.21
77161;BME280;66135;0.000;0.000;2023-11-21T04:49:03;101159.72;;;17.91;67.52
77161;BME280;66135;0.000;0.000;2023-11-21T04:51:29;101167.19;;;17.89;67.49
77161;BME280;66135;0.000;0.000;2023-11-21T04:53:54;101163.59;;;17.89;67.62
77161;BME280;66135;0.000;0.000;2023-11-21T04:56:19;101176.16;;;17.90;67.42
77161;BME280;66135;0.000;0.000;2023-11-21T04:58:45;101174.44;;;17.89;67.39
77161;BME280;66135;0.000;0.000;2023-11-21T05:01:10;101172.59;;;17.89;67.21
77161;BME280;66135;0.000;0.000;2023-11-21T05:03:37;101180.91;;;17.88;67.68
77161;BME280;66135;0.000;0.000;2023-11-21T05:06:03;101167.69;;;17.85;67.49
77161;BME280;66135;0.000;0.000;2023-11-21T05:08:30;101181.25;;;17.85;67.58
77161;BME280;66135;0.000;0.000;2023-11-21T05:10:56;101179.19;;;17.87;67.56
77161;BME280;66135;0.000;0.000;2023-11-21T05:13:21;101190.03;;;17.87;67.11
77161;BME280;66135;0.000;0.000;2023-11-21T05:15:47;101175.81;;;17.85;67.51
77161;BME280;66135;0.000;0.000;2023-11-21T05:18:12;101177.50;;;17.86;67.36
77161;BME280;66135;0.000;0.000;2023-11-21T05:20:39;101177.84;;;17.83;67.39
77161;BME280;66135;0.000;0.000;2023-11-21T05:23:06;101174.28;;;17.82;67.60
77161;BME280;66135;0.000;0.000;2023-11-21T05:25:32;101185.97;;;17.83;67.33
77161;BME280;66135;0.000;0.000;2023-11-21T05:27:57;101188.84;;;17.81;67.65
77161;BME280;66135;0.000;0.000;2023-11-21T05:30:26;101190.88;;;17.79;67.46
77161;BME280;66135;0.000;0.000;2023-11-21T05:32:51;101190.00;;;17.79;67.65
77161;BME280;66135;0.000;0.000;2023-11-21T05:35:17;101187.47;;;17.77;67.59
77161;BME280;66135;0.000;0.000;2023-11-21T05:37:43;101196.47;;;17.78;67.68
77161;BME280;66135;0.000;0.000;2023-11-21T05:40:09;101199.16;;;17.78;67.48
77161;BME280;66135;0.000;0.000;2023-11-21T05:42:35;101199.16;;;17.78;67.66
77161;BME280;66135;0.000;0.000;2023-11-21T05:45:01;101201.88;;;17.78;67.83
77161;BME280;66135;0.000;0.000;2023-11-21T05:47:46;101204.59;;;17.78;67.56
77161;BME280;66135;0.000;0.000;2023-11-21T05:50:14;101208.47;;;17.75;67.60
77161;BME280;66135;0.000;0.000;2023-11-21T05:52:41;101218.31;;;17.76;67.41
77161;BME280;66135;0.000;0.000;2023-11-21T05:55:07;101222.88;;;17.76;67.63
77161;BME280;66135;0.000;0.000;2023-11-21T05:57:37;101229.44;;;17.73;67.26
77161;BME280;66135;0.000;0.000;2023-11-21T06:00:22;101227.94;;;17.71;67.00
77161;BME280;66135;0.000;0.000;2023-11-21T06:02:52;101223.19;;;17.73;67.14
77161;BME280;66135;0.000;0.000;2023-11-21T06:05:23;101230.47;;;17.72;67.03
77161;BME280;66135;0.000;0.000;2023-11-21T06:07:49;101230.63;;;17.71;67.20
77161;BME280;66135;0.000;0.000;2023-11-21T06:10:14;101242.16;;;17.73;67.13
77161;BME280;66135;0.000;0.000;2023-11-21T06:12:40;101240.63;;;17.70;67.11
77161;BME280;66135;0.000;0.000;2023-11-21T06:15:18;101249.91;;;17.68;67.11
77161;BME280;66135;0.000;0.000;2023-11-21T06:17:46;101249.09;;;17.67;67.34
77161;BME280;66135;0.000;0.000;2023-11-21T06:20:23;101250.94;;;17.67;67.41
77161;BME280;66135;0.000;0.000;2023-11-21T06:22:57;101246.19;;;17.69;67.39
77161;BME280;66135;0.000;0.000;2023-11-21T06:25:23;101250.94;;;17.67;67.08
77161;BME280;66135;0.000;0.000;2023-11-21T06:27:50;101252.78;;;17.66;67.56
77161;BME280;66135;0.000;0.000;2023-11-21T06:30:17;101249.38;;;17.64;67.35
77161;BME280;66135;0.000;0.000;2023-11-21T06:32:44;101260.09;;;17.66;67.50
77161;BME280;66135;0.000;0.000;2023-11-21T06:35:11;101259.06;;;17.67;67.32
77161;BME280;66135;0.000;0.000;2023-11-21T06:37:36;101268.22;;;17.66;67.52
77161;BME280;66135;0.000;0.000;2023-11-21T06:40:02;101258.03;;;17.68;67.36
77161;BME280;66135;0.000;0.000;2023-11-21T06:42:29;101264.66;;;17.65;67.46
77161;BME280;66135;0.000;0.000;2023-11-21T06:44:55;101266.50;;;17.65;67.51
77161;BME280;66135;0.000;0.000;2023-11-21T06:47:24;101262.25;;;17.62;67.77
77161;BME280;66135;0.000;0.000;2023-11-21T06:49:50;101271.56;;;17.60;67.60
77161;BME280;66135;0.000;0.000;2023-11-21T06:52:15;101276.97;;;17.60;67.68
77161;BME280;66135;0.000;0.000;2023-11-21T06:54:41;101274.44;;;17.58;67.88
77161;BME280;66135;0.000;0.000;2023-11-21T06:57:06;101270.84;;;17.58;67.76
77161;BME280;66135;0.000;0.000;2023-11-21T06:59:32;101273.72;;;17.56;67.90
77161;BME280;66135;0.000;0.000;2023-11-21T07:01:58;101282.88;;;17.55;66.86
77161;BME280;66135;0.000;0.000;2023-11-21T07:04:24;101288.97;;;17.57;66.36
77161;BME280;66135;0.000;0.000;2023-11-21T07:06:51;101285.97;;;17.60;67.10
77161;BME280;66135;0.000;0.000;2023-11-21T07:09:17;101291.22;;;17.62;67.17
77161;BME280;66135;0.000;0.000;2023-11-21T07:11:42;101300.50;;;17.59;67.19
77161;BME280;66135;0.000;0.000;2023-11-21T07:14:07;101298.81;;;17.58;67.41
77161;BME280;66135;0.000;0.000;2023-11-21T07:16:37;101306.06;;;17.58;67.33
77161;BME280;66135;0.000;0.000;2023-11-21T07:19:06;101306.78;;;17.60;67.53
77161;BME280;66135;0.000;0.000;2023-11-21T07:21:36;101311.16;;;17.61;68.04
77161;BME280;66135;0.000;0.000;2023-11-21T07:24:02;101318.47;;;17.60;67.64
77161;BME280;66135;0.000;0.000;2023-11-21T07:26:28;101321.88;;;17.62;68.00
77161;BME280;66135;0.000;0.000;2023-11-21T07:28:54;101334.56;;;17.62;67.71
77161;BME280;66135;0.000;0.000;2023-11-21T07:31:19;101329.13;;;17.62;67.71
77161;BME280;66135;0.000;0.000;2023-11-21T07:33:48;101333.69;;;17.61;67.95
77161;BME280;66135;0.000;0.000;2023-11-21T07:36:14;101341.47;;;17.56;67.86
77161;BME280;66135;0.000;0.000;2023-11-21T07:38:41;101346.00;;;17.56;67.82
77161;BME280;66135;0.000;0.000;2023-11-21T07:41:08;101342.63;;;17.54;67.99
77161;BME280;66135;0.000;0.000;2023-11-21T07:43:35;101348.06;;;17.54;67.80
77161;BME280;66135;0.000;0.000;2023-11-21T07:46:04;101351.75;;;17.53;67.95
77161;BME280;66135;0.000;0.000;2023-11-21T07:48:35;101357.19;;;17.53;67.80
77161;BME280;66135;0.000;0.000;2023-11-21T07:51:02;101369.03;;;17.52;67.94
77161;BME280;66135;0.000;0.000;2023-11-21T07:53:29;101367.31;;;17.51;67.95
77161;BME280;66135;0.000;0.000;2023-11-21T07:56:02;101372.91;;;17.49;67.98
77161;BME280;66135;0.000;0.000;2023-11-21T07:58:28;101371.03;;;17.50;68.08
77161;BME280;66135;0.000;0.000;2023-11-21T08:00:53;101370.34;;;17.48;68.03
77161;BME280;66135;0.000;0.000;2023-11-21T08:03:19;101371.22;;;17.48;68.29
77161;BME280;66135;0.000;0.000;2023-11-21T08:05:44;101370.34;;;17.48;68.09
77161;BME280;66135;0.000;0.000;2023-11-21T08:08:10;101384.75;;;17.48;68.20
77161;BME280;66135;0.000;0.000;2023-11-21T08:10:35;101383.16;;;17.46;68.12
77161;BME280;66135;0.000;0.000;2023-11-21T08:13:02;101386.03;;;17.44;68.15
77161;BME280;66135;0.000;0.000;2023-11-21T08:15:27;101387.19;;;17.42;68.20
77161;BME280;66135;0.000;0.000;2023-11-21T08:17:53;101382.63;;;17.42;68.11
77161;BME280;66135;0.000;0.000;2023-11-21T08:20:18;101377.03;;;17.44;68.29
77161;BME280;66135;0.000;0.000;2023-11-21T08:22:44;101372.66;;;17.43;68.21
77161;BME280;66135;0.000;0.000;2023-11-21T08:25:10;101377.38;;;17.41;68.14
77161;BME280;66135;0.000;0.000;2023-11-21T08:27:36;101379.06;;;17.42;68.29
77161;BME280;66135;0.000;0.000;2023-11-21T08:30:04;101390.91;;;17.41;68.22
77161;BME280;66135;0.000;0.000;2023-11-21T08:32:30;101397.34;;;17.40;68.27
77161;BME280;66135;0.000;0.000;2023-11-21T08:35:06;101400.06;;;17.40;68.18
77161;BME280;66135;0.000;0.000;2023-11-21T08:37:32;101410.03;;;17.39;68.56
77161;BME280;66135;0.000;0.000;2023-11-21T08:40:09;101416.31;;;17.40;68.31
77161;BME280;66135;0.000;0.000;2023-11-21T08:42:35;101416.31;;;17.40;68.30
77161;BME280;66135;0.000;0.000;2023-11-21T08:45:01;101416.31;;;17.40;68.39
77161;BME280;66135;0.000;0.000;2023-11-21T08:47:26;101425.41;;;17.39;67.98
77161;BME280;66135;0.000;0.000;2023-11-21T08:49:52;101428.66;;;17.42;67.86
77161;BME280;66135;0.000;0.000;2023-11-21T08:52:19;101416.84;;;17.43;68.12
77161;BME280;66135;0.000;0.000;2023-11-21T08:54:48;101419.84;;;17.40;68.39
77161;BME280;66135;0.000;0.000;2023-11-21T08:57:14;101425.97;;;17.42;68.61
77161;BME280;66135;0.000;0.000;2023-11-21T08:59:39;101423.94;;;17.44;68.21
77161;BME280;66135;0.000;0.000;2023-11-21T09:02:04;101438.34;;;17.45;68.55
77161;BME280;66135;0.000;0.000;2023-11-21T09:04:30;101433.91;;;17.44;68.82
77161;BME280;66135;0.000;0.000;2023-11-21T09:06:55;101438.50;;;17.43;68.69
77161;BME280;66135;0.000;0.000;2023-11-21T09:09:20;101438.50;;;17.43;68.94
77161;BME280;66135;0.000;0.000;2023-11-21T09:11:46;101432.41;;;17.41;68.72
77161;BME280;66135;0.000;0.000;2023-11-21T09:14:14;101439.50;;;17.42;68.92
77161;BME280;66135;0.000;0.000;2023-11-21T09:16:41;101435.81;;;17.43;69.02
77161;BME280;66135;0.000;0.000;2023-11-21T09:19:06;101443.94;;;17.43;69.17
77161;BME280;66135;0.000;0.000;2023-11-21T09:21:32;101439.50;;;17.42;69.24
77161;BME280;66135;0.000;0.000;2023-11-21T09:23:58;101443.06;;;17.43;69.34
77161;BME280;66135;0.000;0.000;2023-11-21T09:26:23;101441.34;;;17.42;69.36
77161;BME280;66135;0.000;0.000;2023-11-21T09:28:48;101448.47;;;17.43;69.45
77161;BME280;66135;0.000;0.000;2023-11-21T09:31:14;101448.47;;;17.43;69.26
77161;BME280;66135;0.000;0.000;2023-11-21T09:33:44;101459.31;;;17.43;69.46
77161;BME280;66135;0.000;0.000;2023-11-21T09:36:13;101462.19;;;17.41;69.23
77161;BME280;66135;0.000;0.000;2023-11-21T09:38:41;101469.28;;;17.42;69.65
77161;BME280;66135;0.000;0.000;2023-11-21T09:41:19;101480.97;;;17.43;69.57
77161;BME280;66135;0.000;0.000;2023-11-21T09:44:02;101475.56;;;17.43;69.39
77161;BME280;66135;0.000;0.000;2023-11-21T09:46:33;101473.84;;;17.42;69.69
77161;BME280;66135;0.000;0.000;2023-11-21T09:49:00;101484.13;;;17.38;69.23
77161;BME280;66135;0.000;0.000;2023-11-21T09:51:27;101494.97;;;17.38;69.20
77161;BME280;66135;0.000;0.000;2023-11-21T09:54:03;101479.75;;;17.37;69.25
77161;BME280;66135;0.000;0.000;2023-11-21T09:56:32;101486.31;;;17.35;69.40
77161;BME280;66135;0.000;0.000;2023-11-21T09:58:57;101499.72;;;17.36;69.30
77161;BME280;66135;0.000;0.000;2023-11-21T10:01:25;101498.16;;;17.34;69.13
77161;BME280;66135;0.000;0.000;2023-11-21T10:03:51;101518.97;;;17.33;68.83
77161;BME280;66135;0.000;0.000;2023-11-21T10:06:17;101507.31;;;17.33;68.81
77161;BME280;66135;0.000;0.000;2023-11-21T10:08:43;101501.88;;;17.33;68.68
77161;BME280;66135;0.000;0.000;2023-11-21T10:11:18;101502.88;;;17.32;67.88
77161;BME280;66135;0.000;0.000;2023-11-21T10:13:45;101502.47;;;17.27;68.24
77161;BME280;66135;0.000;0.000;2023-11-21T10:16:14;101527.00;;;17.25;67.89
77161;BME280;66135;0.000;0.000;2023-11-21T10:18:49;101524.31;;;17.25;68.36
77161;BME280;66135;0.000;0.000;2023-11-21T10:21:18;101523.28;;;17.26;68.33
77161;BME280;66135;0.000;0.000;2023-11-21T10:23:44;101519.03;;;17.24;68.43
77161;BME280;66135;0.000;0.000;2023-11-21T10:26:19;101520.72;;;17.25;68.30
77161;BME280;66135;0.000;0.000;2023-11-21T10:28:56;101522.72;;;17.23;68.29
77161;BME280;66135;0.000;0.000;2023-11-21T10:31:23;101519.03;;;17.24;68.23
77161;BME280;66135;0.000;0.000;2023-11-21T10:33:50;101528.03;;;17.24;68.09
77161;BME280;66135;0.000;0.000;2023-11-21T10:36:25;101526.16;;;17.25;68.23
77161;BME280;66135;0.000;0.000;2023-11-21T10:38:52;101517.19;;;17.24;68.21
77161;BME280;66135;0.000;0.000;2023-11-21T10:41:18;101519.91;;;17.24;68.19
77161;BME280;66135;0.000;0.000;2023-11-21T10:43:44;101527.16;;;17.24;68.34
77161;BME280;66135;0.000;0.000;2023-11-21T10:46:10;101525.31;;;17.24;67.96
77161;BME280;66135;0.000;0.000;2023-11-21T10:48:35;101520.03;;;17.23;67.76
77161;BME280;66135;0.000;0.000;2023-11-21T10:51:06;101530.19;;;17.21;68.04
77161;BME280;66135;0.000;0.000;2023-11-21T10:53:32;101529.47;;;17.19;67.85
77161;BME280;66135;0.000;0.000;2023-11-21T10:56:05;101532.34;;;17.17;67.78
77161;BME280;66135;0.000;0.000;2023-11-21T10:58:32;101526.22;;;17.15;68.13
77161;BME280;66135;0.000;0.000;2023-11-21T11:01:11;101540.31;;;17.19;68.45
77161;BME280;66135;0.000;0.000;2023-11-21T11:03:37;101542.41;;;17.25;68.79
77161;BME280;66135;0.000;0.000;2023-11-21T11:06:04;101543.50;;;17.32;68.58
77161;BME280;66135;0.000;0.000;2023-11-21T11:08:33;101541.00;;;17.38;68.52
77161;BME280;66135;0.000;0.000;2023-11-21T11:11:00;101544.59;;;17.39;68.88
77161;BME280;66135;0.000;0.000;2023-11-21T11:13:26;101544.59;;;17.39;68.70
77161;BME280;66135;0.000;0.000;2023-11-21T11:15:57;101541.00;;;17.38;68.86
77161;BME280;66135;0.000;0.000;2023-11-21T11:18:43;101543.88;;;17.37;69.08
77161;BME280;66135;0.000;0.000;2023-11-21T11:21:32;101554.72;;;17.37;69.16
77161;BME280;66135;0.000;0.000;2023-11-21T11:27:25;101559.16;;;17.38;69.27
77161;BME280;66135;0.000;0.000;2023-11-21T11:33:29;101570.97;;;17.37;69.62
77161;BME280;66135;0.000;0.000;2023-11-21T11:36:43;101579.09;;;17.37;69.39
77161;BME280;66135;0.000;0.000;2023-11-21T11:39:34;101579.09;;;17.37;69.56
77161;BME280;66135;0.000;0.000;2023-11-21T11:42:03;101585.69;;;17.34;69.40
77161;BME280;66135;0.000;0.000;2023-11-21T11:47:34;101583.41;;;17.30;69.38
77161;BME280;66135;0.000;0.000;2023-11-21T11:50:10;101578.84;;;17.30;69.56
77161;BME280;66135;0.000;0.000;2023-11-21T11:55:17;101571.59;;;17.31;69.14
77161;BME280;66135;0.000;0.000;2023-11-21T11:57:55;101580.53;;;17.31;69.43
77161;BME280;66135;0.000;0.000;2023-11-21T12:00:22;101591.69;;;17.28;69.38
77161;BME280;66135;0.000;0.000;2023-11-21T12:03:13;101595.41;;;17.27;69.61
77161;BME280;66135;0.000;0.000;2023-11-21T12:05:40;101605.53;;;17.25;69.42
77161;BME280;66135;0.000;0.000;2023-11-21T12:08:07;101610.09;;;17.25;69.64
77161;BME280;66135;0.000;0.000;2023-11-21T12:10:34;101612.78;;;17.25;69.77
77161;BME280;66135;0.000;0.000;2023-11-21T12:13:06;101616.53;;;17.24;69.77
77161;BME280;66135;0.000;0.000;2023-11-21T12:15:36;101616.69;;;17.22;69.71
77161;BME280;66135;0.000;0.000;2023-11-21T12:18:02;101617.66;;;17.21;69.74
77161;BME280;66135;0.000;0.000;2023-11-21T12:20:29;101626.66;;;17.22;69.71
77161;BME280;66135;0.000;0.000;2023-11-21T12:23:04;101620.38;;;17.21;69.61
77161;BME280;66135;0.000;0.000;2023-11-21T12:25:31;101624.81;;;17.22;69.56
77161;BME280;66135;0.000;0.000;2023-11-21T12:28:01;101632.22;;;17.20;69.66
77161;BME280;66135;0.000;0.000;2023-11-21T12:30:35;101625.94;;;17.20;69.74
77161;BME280;66135;0.000;0.000;2023-11-21T12:33:03;101636.75;;;17.20;69.79
77161;BME280;66135;0.000;0.000;2023-11-21T12:35:41;101633.19;;;17.19;69.78
77161;BME280;66135;0.000;0.000;2023-11-21T12:38:07;101639.47;;;17.20;69.83
77161;BME280;66135;0.000;0.000;2023-11-21T12:40:36;101643.91;;;17.21;69.61
77161;BME280;66135;0.000;0.000;2023-11-21T12:43:02;101646.75;;;17.19;69.77
77161;BME280;66135;0.000;0.000;2023-11-21T12:45:29;101646.75;;;17.19;69.78
77161;BME280;66135;0.000;0.000;2023-11-21T12:47:59;101646.06;;;17.17;69.69
77161;BME280;66135;0.000;0.000;2023-11-21T12:50:30;101639.63;;;17.18;69.63
77161;BME280;66135;0.000;0.000;2023-11-21T12:55:33;101647.75;;;17.18;69.80
77161;BME280;66135;0.000;0.000;2023-11-21T12:58:03;101646.06;;;17.17;69.78
77161;BME280;66135;0.000;0.000;2023-11-21T13:00:39;101657.72;;;17.18;69.74
77161;BME280;66135;0.000;0.000;2023-11-21T13:03:07;101653.31;;;17.17;69.84
77161;BME280;66135;0.000;0.000;2023-11-21T13:05:35;101651.47;;;17.17;69.77
77161;BME280;66135;0.000;0.000;2023-11-21T13:08:12;101664.16;;;17.17;69.72
77161;BME280;66135;0.000;0.000;2023-11-21T13:11:07;101654.31;;;17.16;69.88
77161;BME280;66135;0.000;0.000;2023-11-21T13:13:33;101648.88;;;17.16;69.76
77161;BME280;66135;0.000;0.000;2023-11-21T13:16:02;101654.31;;;17.16;69.79
77161;BME280;66135;0.000;0.000;2023-11-21T13:18:31;101655.31;;;17.15;69.99